createdAt,value
2023-03-23T15:58:45.256Z,100105.38
2023-03-23T16:01:48.648Z,100120.19
2023-03-23T16:04:52.851Z,100130.41
2023-03-23T16:07:56.324Z,100135.31
2023-03-23T16:11:00.213Z,100150.78
2023-03-23T16:14:04.413Z,100170.69
2023-03-23T16:17:07.596Z,100196.25
2023-03-23T16:20:15.550Z,100195.47
2023-03-23T16:23:18.322Z,100195.09
2023-03-23T16:26:21.216Z,100194.72
2023-03-23T16:29:40.556Z,100160.84
2023-03-23T16:32:48.311Z,100150.81
2023-03-23T16:35:52.617Z,100166.53
2023-03-23T16:38:55.379Z,100187.41
2023-03-23T16:41:58.239Z,100204.81
2023-03-23T16:45:02.313Z,100215.72
2023-03-23T16:48:05.686Z,100218.72
2023-03-23T16:51:09.096Z,100219.53
2023-03-23T16:54:11.861Z,100222.19
2023-03-23T16:57:14.787Z,100210.81
2023-03-23T17:00:21.943Z,100225.00
2023-03-23T17:03:24.836Z,100229.44
2023-03-23T17:06:28.085Z,100236.69
2023-03-23T17:09:30.839Z,100244.38
2023-03-23T17:12:33.985Z,100238.09
2023-03-23T17:15:39.556Z,100227.41
2023-03-23T17:18:42.513Z,100235.13
2023-03-23T17:21:45.341Z,100248.69
2023-03-23T17:24:48.632Z,100238.28
2023-03-23T17:27:51.995Z,100250.13
2023-03-23T17:30:56.326Z,100261.44
2023-03-23T17:33:59.274Z,100273.81
2023-03-23T17:37:02.057Z,100262.34
2023-03-23T17:40:08.293Z,100261.34
2023-03-23T17:43:11.062Z,100259.59
2023-03-23T17:46:15.371Z,100274.03
2023-03-23T17:49:18.301Z,100264.81
2023-03-23T17:52:21.069Z,100260.81
2023-03-23T17:55:23.780Z,100245.94
2023-03-23T17:58:27.075Z,100241.09
2023-03-23T18:01:31.204Z,100244.59
2023-03-23T18:04:34.401Z,100246.03
2023-03-23T18:07:37.694Z,100231.16
2023-03-23T18:10:42.115Z,100244.69
2023-03-23T18:13:44.847Z,100263.13
2023-03-23T18:16:49.275Z,100262.31
2023-03-23T18:19:52.189Z,100259.28
2023-03-23T18:22:55.427Z,100276.06
2023-03-23T18:25:58.150Z,100270.56
2023-03-23T18:29:01.164Z,100281.03
2023-03-23T18:32:07.188Z,100283.78
2023-03-23T18:35:11.955Z,100308.56
2023-03-23T18:38:15.175Z,100319.00
2023-03-23T18:41:19.634Z,100313.50
2023-03-23T18:44:22.484Z,100309.38
2023-03-23T18:47:27.115Z,100313.53
2023-03-23T18:50:29.964Z,100298.06
2023-03-23T18:53:33.112Z,100283.78
2023-03-23T18:56:35.916Z,100284.03
2023-03-23T18:59:39.082Z,100295.16
2023-03-23T19:02:43.278Z,100289.06
2023-03-23T19:05:47.148Z,100305.00
2023-03-23T19:08:51.936Z,100308.59
2023-03-23T19:11:54.739Z,100306.91
2023-03-23T19:14:57.552Z,100290.19
2023-03-23T19:18:01.646Z,100285.22
2023-03-23T19:24:11.131Z,100300.94
2023-03-23T19:27:13.812Z,100305.06
2023-03-23T19:30:16.519Z,100298.19
2023-03-23T19:33:20.878Z,100310.59
2023-03-23T19:36:24.892Z,100302.59
2023-03-23T19:39:28.029Z,100297.91
2023-03-23T19:42:31.180Z,100304.75
2023-03-23T19:45:34.181Z,100294.03
2023-03-23T19:48:39.708Z,100297.06
2023-03-23T19:51:42.781Z,100299.56
2023-03-23T19:54:46.076Z,100293.50
2023-03-23T19:57:50.510Z,100305.59
2023-03-23T20:00:53.286Z,100306.72
2023-03-23T20:04:00.026Z,100298.97
2023-03-23T20:07:05.912Z,100313.59
2023-03-23T20:10:10.188Z,100312.97
2023-03-23T20:13:13.016Z,100316.59
2023-03-23T20:16:16.846Z,100302.53
2023-03-23T20:19:21.492Z,100307.50
2023-03-23T20:22:24.370Z,100308.38
2023-03-23T20:25:27.363Z,100310.84
2023-03-23T20:28:30.118Z,100311.13
2023-03-23T20:31:36.730Z,100304.75
2023-03-23T20:34:41.107Z,100310.84
2023-03-23T20:37:44.493Z,100307.53
2023-03-23T20:40:48.026Z,100306.16
2023-03-23T20:43:51.260Z,100296.25
2023-03-23T20:46:54.944Z,100310.84
2023-03-23T20:50:00.167Z,100302.56
2023-03-23T20:53:03.268Z,100308.88
2023-03-23T20:56:08.748Z,100299.78
2023-03-23T20:59:12.403Z,100308.09
2023-03-23T21:02:18.204Z,100300.69
2023-03-23T21:05:22.448Z,100293.25
2023-03-23T21:08:25.749Z,100297.66
2023-03-23T21:11:30.061Z,100300.69
2023-03-23T21:14:33.123Z,100302.38
2023-03-23T21:17:35.934Z,100298.50
2023-03-23T21:20:40.528Z,100278.16
2023-03-23T21:23:46.638Z,100278.72
2023-03-23T21:26:50.090Z,100270.22
2023-03-23T21:29:57.141Z,100264.69
2023-03-23T21:33:00.098Z,100258.38
2023-03-23T21:36:04.570Z,100257.03
2023-03-23T21:39:08.011Z,100256.50
2023-03-23T21:42:13.569Z,100252.13
2023-03-23T21:45:20.866Z,100260.63
2023-03-23T21:48:25.102Z,100261.13
2023-03-23T21:51:30.142Z,100252.75
2023-03-23T21:54:34.372Z,100246.63
2023-03-23T21:57:37.763Z,100242.69
2023-03-23T22:00:41.448Z,100238.66
2023-03-23T22:03:44.892Z,100236.75
2023-03-23T22:06:49.674Z,100246.09
2023-03-23T22:09:53.422Z,100239.06
2023-03-23T22:12:56.982Z,100236.28
2023-03-23T22:16:01.871Z,100232.13
2023-03-23T22:19:05.277Z,100241.75
2023-03-23T22:22:09.488Z,100240.94
2023-03-23T22:25:13.466Z,100241.50
2023-03-23T22:28:16.646Z,100243.13
2023-03-23T22:31:22.051Z,100232.44
2023-03-23T22:34:25.078Z,100238.25
2023-03-23T22:37:29.281Z,100237.72
2023-03-23T22:40:32.842Z,100232.22
2023-03-23T22:43:36.703Z,100226.44
2023-03-23T22:46:39.676Z,100217.66
2023-03-23T22:49:42.617Z,100211.06
2023-03-23T22:52:46.776Z,100213.81
2023-03-23T22:55:51.972Z,100215.75
2023-03-23T22:58:55.167Z,100208.63
2023-03-23T23:01:57.926Z,100199.53
2023-03-23T23:05:00.829Z,100192.41
2023-03-23T23:08:05.009Z,100199.00
2023-03-23T23:11:11.078Z,100188.84
2023-03-23T23:14:13.941Z,100194.41
2023-03-23T23:17:17.001Z,100185.88
2023-03-23T23:20:20.137Z,100176.84
2023-03-23T23:23:25.567Z,100170.53
2023-03-23T23:26:28.680Z,100161.75
2023-03-23T23:29:31.626Z,100168.63
2023-03-23T23:32:36.328Z,100170.56
2023-03-23T23:35:40.762Z,100162.88
2023-03-23T23:38:45.116Z,100159.28
2023-03-23T23:41:48.225Z,100154.91
2023-03-23T23:44:51.102Z,100150.25
2023-03-23T23:47:54.160Z,100148.84
2023-03-23T23:50:57.087Z,100152.44
2023-03-23T23:54:01.975Z,100149.66
2023-03-23T23:57:06.258Z,100145.81
